Milouin — FT9009 — position and weather

sailwx.info

Track history (hours):
 
Tides and Currents Weather Stations Pressure Air Temp Water Temp Dewpoint Dewpoint Depression Visibility Wind Speed Wind Dir Waves Ship Positions

Milouin

Last reported at 2017-Mar-29 20:32 UTC. Time now 2017-Mar-29 21:08 UTC.
Position N 47°17' W 002°01'.

Length 36 m; draft 2.5 m.

Type: Ship. MMSI: 227003190.

Date/timePositionNaut miles runAvg speedWind from/ knotsBaromVisibWave heightAir tempDewpointWater temp
2017-Mar-29 20:32N 47°17' W 002°01'0 0.0
2017-Mar-29 19:32N 47°17' W 002°01'0 0.0
2017-Mar-29 18:29N 47°17' W 002°01'0 0.0
2017-Mar-29 17:26N 47°17' W 002°01'0 0.0
2017-Mar-29 16:29N 47°17' W 002°01'0 0.0
2017-Mar-29 15:32N 47°17' W 002°01'2 1.7
2017-Mar-29 14:22N 47°18' W 002°04'0 0.0
2017-Mar-29 11:23N 47°18' W 002°04'2 1.5
2017-Mar-29 10:18N 47°18' W 002°06'0 0.1
2017-Mar-29 09:33N 47°18' W 002°06'0 0.1
2017-Mar-29 08:19N 47°18' W 002°06'0 0.1
2017-Mar-29 07:33N 47°18' W 002°06'0 0.1
2017-Mar-29 06:31N 47°18' W 002°06'3 2.5
2017-Mar-29 05:14N 47°17' W 002°02'0 0.4
2017-Mar-29 04:23N 47°17' W 002°01'0 0.0
2017-Mar-29 03:32N 47°17' W 002°01'0 0.0
2017-Mar-29 02:25N 47°17' W 002°01'0 0.0
2017-Mar-29 01:32N 47°17' W 002°01'0 0.0
2017-Mar-29 00:31N 47°17' W 002°01'0 0.0
2017-Mar-28 23:07N 47°17' W 002°01'0 0.0
2017-Mar-28 22:25N 47°17' W 002°01'0 0.0
2017-Mar-28 21:32N 47°17' W 002°01'0 0.0
2017-Mar-28 16:28N 47°17' W 002°01'0 0.0
2017-Mar-28 11:28N 47°17' W 002°01'3 3.5
2017-Mar-28 10:32N 47°18' W 002°06'0 0.4
2017-Mar-28 09:13N 47°18' W 002°06'0 0.1
2017-Mar-28 08:33N 47°18' W 002°06'0 0.0
2017-Mar-28 07:29N 47°18' W 002°06'1 1.0
2017-Mar-28 06:33N 47°18' W 002°05'3 2.8
2017-Mar-28 05:33N 47°17' W 002°01'0 0.0
2017-Mar-28 04:28N 47°17' W 002°01'0 0.0
2017-Mar-28 03:16N 47°17' W 002°01'0 0.0
2017-Mar-28 02:28N 47°17' W 002°01'0 0.0
2017-Mar-28 01:22N 47°17' W 002°01'0 0.0
2017-Mar-27 22:16N 47°17' W 002°01'4 0.3
2017-Mar-27 09:28N 47°18' W 002°07'1 0.7
2017-Mar-27 08:28N 47°18' W 002°08'1 1.2
2017-Mar-27 07:33N 47°18' W 002°09'0 0.0
2017-Mar-27 06:33N 47°18' W 002°09'2 1.7
2017-Mar-27 05:34N 47°18' W 002°07'4 3.7
2017-Mar-27 04:28N 47°17' W 002°01'0 0.0
2017-Mar-27 03:28N 47°17' W 002°01'0 0.0
2017-Mar-27 02:13N 47°17' W 002°01'0 0.0
2017-Mar-27 01:28N 47°17' W 002°01'0 0.0
2017-Mar-27 00:28N 47°17' W 002°01'0 0.0
2017-Mar-26 23:28N 47°17' W 002°01'0 0.0
2017-Mar-26 22:07N 47°17' W 002°01'0 0.0
2017-Mar-26 21:16N 47°17' W 002°01'0 0.0
2017-Mar-26 16:28N 47°17' W 002°01'4 4.0
2017-Mar-26 15:29N 47°18' W 002°07'0 0.1
2017-Mar-26 14:33N 47°18' W 002°07'4 3.3
2017-Mar-26 13:21N 47°17' W 002°01'0 0.0
2017-Mar-26 12:30N 47°17' W 002°01'1 0.3
2017-Mar-26 09:33N 47°18' W 002°02'3 3.3
2017-Mar-26 08:33N 47°18' W 002°07'0 0.2
2017-Mar-26 07:33N 47°18' W 002°07'0 0.2
2017-Mar-26 06:33N 47°18' W 002°08'0 0.1
2017-Mar-26 05:33N 47°18' W 002°08'4 4.3
2017-Mar-26 04:32N 47°17' W 002°01'0 0.0
2017-Mar-26 03:29N 47°17' W 002°01'0 0.0
2017-Mar-26 01:14N 47°17' W 002°01'0 0.0
2017-Mar-26 00:32N 47°17' W 002°01'0 0.0
2017-Mar-25 23:29N 47°17' W 002°01'0 0.0
2017-Mar-25 22:26N 47°17' W 002°01'0 0.0
2017-Mar-25 17:18N 47°17' W 002°01'1 1.7
2017-Mar-25 16:32N 47°18' W 002°03'0 0.2
2017-Mar-25 15:29N 47°18' W 002°03'0 0.0
2017-Mar-25 14:28N 47°18' W 002°03'1 0.6
2017-Mar-25 13:33N 47°18' W 002°04'0 0.0
2017-Mar-25 12:29N 47°18' W 002°04'2 0.7
2017-Mar-25 09:28N 47°17' W 002°01'0 0.0
2017-Mar-25 08:31N 47°17' W 002°01'1 1.3
2017-Mar-25 07:31N 47°18' W 002°03'0 0.1
2017-Mar-25 06:26N 47°18' W 002°03'1 0.3
2017-Mar-25 01:33N 47°17' W 002°01'0 0.0
2017-Mar-25 00:33N 47°17' W 002°01'0 0.0
2017-Mar-24 23:30N 47°17' W 002°01'0 0.0
2017-Mar-24 22:24N 47°17' W 002°01'0 0.0
2017-Mar-24 20:06N 47°17' W 002°01'0 0.0
2017-Mar-24 17:19N 47°17' W 002°01'4 5.1
2017-Mar-24 16:32N 47°18' W 002°07'0 0.2
2017-Mar-24 15:28N 47°18' W 002°07'0 0.0
2017-Mar-24 14:30N 47°18' W 002°07'0 0.0
2017-Mar-24 13:30N 47°18' W 002°07'4 4.3
2017-Mar-24 12:32N 47°17' W 002°01'0 0.0
2017-Mar-24 07:30N 47°17' W 002°01'0 0.3
2017-Mar-24 06:34N 47°18' W 002°01'0 0.1
2017-Mar-24 01:33N 47°17' W 002°01'0 0.0
2017-Mar-23 23:15N 47°17' W 002°01'0 0.0
2017-Mar-23 20:24N 47°17' W 002°01'0 0.0
2017-Mar-23 17:27N 47°17' W 002°01'0 0.3
2017-Mar-23 16:27N 47°18' W 002°01'0 0.2
2017-Mar-23 15:33N 47°18' W 002°01'0 0.3
2017-Mar-23 14:33N 47°18' W 002°01'0 0.2
2017-Mar-23 13:32N 47°18' W 002°01'0 0.3
2017-Mar-23 12:32N 47°17' W 002°01'0 0.0
2017-Mar-23 11:31N 47°17' W 002°01'0 0.0
2017-Mar-23 06:16N 47°17' W 002°01'0 0.0
2017-Mar-23 05:11N 47°17' W 002°01'0 0.0
2017-Mar-22 18:04N 47°17' W 002°01'0 0.0
2017-Mar-22 17:10N 47°17' W 002°01'3 4.9
2017-Mar-22 16:32N 47°18' W 002°06'0 0.3
2017-Mar-22 15:32N 47°18' W 002°06'0 0.0
2017-Mar-22 14:30N 47°18' W 002°06'0 0.1
2017-Mar-22 13:31N 47°18' W 002°06'0 0.1
2017-Mar-22 12:31N 47°18' W 002°06'1 0.7
2017-Mar-22 11:34N 47°18' W 002°05'3 0.9
2017-Mar-22 08:31N 47°17' W 002°01'0 0.0
2017-Mar-22 03:31N 47°17' W 002°01'0 0.0
2017-Mar-22 02:28N 47°17' W 002°01'0 0.0
2017-Mar-21 23:22N 47°17' W 002°01'0 0.0
2017-Mar-21 22:28N 47°17' W 002°01'0 0.0
2017-Mar-21 21:28N 47°17' W 002°01'0 0.0
2017-Mar-21 20:28N 47°17' W 002°01'0 0.0
2017-Mar-21 19:19N 47°17' W 002°01'0 0.0
2017-Mar-21 18:31N 47°17' W 002°01'0 0.0
2017-Mar-21 17:28N 47°17' W 002°01'5 5.1
2017-Mar-21 16:33N 47°18' W 002°08'1 0.6
2017-Mar-21 15:32N 47°18' W 002°09'0 0.1
2017-Mar-21 14:33N 47°18' W 002°09'0 0.0
2017-Mar-21 13:18N 47°18' W 002°09'0 0.2
2017-Mar-21 12:33N 47°18' W 002°09'0 0.4
2017-Mar-21 11:27N 47°17' W 002°10'1 1.2
2017-Mar-21 10:31N 47°18' W 002°08'0 0.3
2017-Mar-21 09:31N 47°18' W 002°08'5 4.7
2017-Mar-21 08:33N 47°17' W 002°01'0 0.0
2017-Mar-21 07:27N 47°17' W 002°01'0 0.0
2017-Mar-21 06:30N 47°17' W 002°01'0 0.0
2017-Mar-21 05:33N 47°17' W 002°01'0 0.0
2017-Mar-21 04:33N 47°17' W 002°01'0 0.0
2017-Mar-21 03:33N 47°17' W 002°01'0 0.0
2017-Mar-21 02:27N 47°17' W 002°01'0 0.0
2017-Mar-21 01:30N 47°17' W 002°01'0 0.0
2017-Mar-21 00:33N 47°17' W 002°01'0 0.0
2017-Mar-20 23:30N 47°17' W 002°01'0 0.0
2017-Mar-20 22:33N 47°17' W 002°01'0 0.0
2017-Mar-20 21:27N 47°17' W 002°01'0 0.0
2017-Mar-20 20:30N 47°17' W 002°01'0 0.0
2017-Mar-20 19:27N 47°17' W 002°01'0 0.0
2017-Mar-20 18:21N 47°17' W 002°01'0 0.0
2017-Mar-20 17:27N 47°17' W 002°01'0 0.0
2017-Mar-20 16:33N 47°17' W 002°01'5 5.0
2017-Mar-20 15:33N 47°18' W 002°08'0 0.4
2017-Mar-20 14:31N 47°18' W 002°09'0 0.1
2017-Mar-20 13:29N 47°18' W 002°09'0 0.0
2017-Mar-20 12:27N 47°18' W 002°09'0 0.0
2017-Mar-20 11:31N 47°18' W 002°09'0 0.2
2017-Mar-20 10:22N 47°18' W 002°09'1 0.9
2017-Mar-20 09:33N 47°18' W 002°08'0 0.2
2017-Mar-20 08:33N 47°18' W 002°08'0 0.1
2017-Mar-20 07:33N 47°18' W 002°08'5 4.7
2017-Mar-20 06:33N 47°17' W 002°01'0 0.0
2017-Mar-20 05:33N 47°17' W 002°01'0 0.0
2017-Mar-20 04:33N 47°17' W 002°01'0 0.0
2017-Mar-20 03:33N 47°17' W 002°01'0 0.0
2017-Mar-20 02:33N 47°17' W 002°01'0 0.0
2017-Mar-20 01:33N 47°17' W 002°01'0 0.0
2017-Mar-20 00:33N 47°17' W 002°01'0 0.0
2017-Mar-19 23:33N 47°17' W 002°01'0 0.0
2017-Mar-19 22:33N 47°17' W 002°01'0 0.0
2017-Mar-19 21:33N 47°17' W 002°01'  
Track history (hours):
 
Tides and Currents Weather Stations Pressure Air Temp Water Temp Dewpoint Dewpoint Depression Visibility Wind Speed Wind Dir Waves Ship Positions

Milouin

Last reported at 2017-Mar-29 20:32 UTC. Time now 2017-Mar-29 21:08 UTC.
Position N 47°17' W 002°01'.

Length 36 m; draft 2.5 m.

Type: Ship. MMSI: 227003190.

Date/timePositionNaut miles runAvg speedWind from/ knotsBaromVisibWave heightAir tempDewpointWater temp
2017-Mar-29 20:32N 47°17' W 002°01'0 0.0
2017-Mar-29 19:32N 47°17' W 002°01'0 0.0
2017-Mar-29 18:29N 47°17' W 002°01'0 0.0
2017-Mar-29 17:26N 47°17' W 002°01'0 0.0
2017-Mar-29 16:29N 47°17' W 002°01'0 0.0
2017-Mar-29 15:32N 47°17' W 002°01'2 1.7
2017-Mar-29 14:22N 47°18' W 002°04'0 0.0
2017-Mar-29 11:23N 47°18' W 002°04'2 1.5
2017-Mar-29 10:18N 47°18' W 002°06'0 0.1
2017-Mar-29 09:33N 47°18' W 002°06'0 0.1
2017-Mar-29 08:19N 47°18' W 002°06'0 0.1
2017-Mar-29 07:33N 47°18' W 002°06'0 0.1
2017-Mar-29 06:31N 47°18' W 002°06'3 2.5
2017-Mar-29 05:14N 47°17' W 002°02'0 0.4
2017-Mar-29 04:23N 47°17' W 002°01'0 0.0
2017-Mar-29 03:32N 47°17' W 002°01'0 0.0
2017-Mar-29 02:25N 47°17' W 002°01'0 0.0
2017-Mar-29 01:32N 47°17' W 002°01'0 0.0
2017-Mar-29 00:31N 47°17' W 002°01'0 0.0
2017-Mar-28 23:07N 47°17' W 002°01'0 0.0
2017-Mar-28 22:25N 47°17' W 002°01'0 0.0
2017-Mar-28 21:32N 47°17' W 002°01'0 0.0
2017-Mar-28 16:28N 47°17' W 002°01'0 0.0
2017-Mar-28 11:28N 47°17' W 002°01'3 3.5
2017-Mar-28 10:32N 47°18' W 002°06'0 0.4
2017-Mar-28 09:13N 47°18' W 002°06'0 0.1
2017-Mar-28 08:33N 47°18' W 002°06'0 0.0
2017-Mar-28 07:29N 47°18' W 002°06'1 1.0
2017-Mar-28 06:33N 47°18' W 002°05'3 2.8
2017-Mar-28 05:33N 47°17' W 002°01'0 0.0
2017-Mar-28 04:28N 47°17' W 002°01'0 0.0
2017-Mar-28 03:16N 47°17' W 002°01'0 0.0
2017-Mar-28 02:28N 47°17' W 002°01'0 0.0
2017-Mar-28 01:22N 47°17' W 002°01'0 0.0
2017-Mar-27 22:16N 47°17' W 002°01'4 0.3
2017-Mar-27 09:28N 47°18' W 002°07'1 0.7
2017-Mar-27 08:28N 47°18' W 002°08'1 1.2
2017-Mar-27 07:33N 47°18' W 002°09'0 0.0
2017-Mar-27 06:33N 47°18' W 002°09'2 1.7
2017-Mar-27 05:34N 47°18' W 002°07'4 3.7
2017-Mar-27 04:28N 47°17' W 002°01'0 0.0
2017-Mar-27 03:28N 47°17' W 002°01'0 0.0
2017-Mar-27 02:13N 47°17' W 002°01'0 0.0
2017-Mar-27 01:28N 47°17' W 002°01'0 0.0
2017-Mar-27 00:28N 47°17' W 002°01'0 0.0
2017-Mar-26 23:28N 47°17' W 002°01'0 0.0
2017-Mar-26 22:07N 47°17' W 002°01'0 0.0
2017-Mar-26 21:16N 47°17' W 002°01'0 0.0
2017-Mar-26 16:28N 47°17' W 002°01'4 4.0
2017-Mar-26 15:29N 47°18' W 002°07'0 0.1
2017-Mar-26 14:33N 47°18' W 002°07'4 3.3
2017-Mar-26 13:21N 47°17' W 002°01'0 0.0
2017-Mar-26 12:30N 47°17' W 002°01'1 0.3
2017-Mar-26 09:33N 47°18' W 002°02'3 3.3
2017-Mar-26 08:33N 47°18' W 002°07'0 0.2
2017-Mar-26 07:33N 47°18' W 002°07'0 0.2
2017-Mar-26 06:33N 47°18' W 002°08'0 0.1
2017-Mar-26 05:33N 47°18' W 002°08'4 4.3
2017-Mar-26 04:32N 47°17' W 002°01'0 0.0
2017-Mar-26 03:29N 47°17' W 002°01'0 0.0
2017-Mar-26 01:14N 47°17' W 002°01'0 0.0
2017-Mar-26 00:32N 47°17' W 002°01'0 0.0
2017-Mar-25 23:29N 47°17' W 002°01'0 0.0
2017-Mar-25 22:26N 47°17' W 002°01'0 0.0
2017-Mar-25 17:18N 47°17' W 002°01'1 1.7
2017-Mar-25 16:32N 47°18' W 002°03'0 0.2
2017-Mar-25 15:29N 47°18' W 002°03'0 0.0
2017-Mar-25 14:28N 47°18' W 002°03'1 0.6
2017-Mar-25 13:33N 47°18' W 002°04'0 0.0
2017-Mar-25 12:29N 47°18' W 002°04'2 0.7
2017-Mar-25 09:28N 47°17' W 002°01'0 0.0
2017-Mar-25 08:31N 47°17' W 002°01'1 1.3
2017-Mar-25 07:31N 47°18' W 002°03'0 0.1
2017-Mar-25 06:26N 47°18' W 002°03'1 0.3
2017-Mar-25 01:33N 47°17' W 002°01'0 0.0
2017-Mar-25 00:33N 47°17' W 002°01'0 0.0
2017-Mar-24 23:30N 47°17' W 002°01'0 0.0
2017-Mar-24 22:24N 47°17' W 002°01'0 0.0
2017-Mar-24 20:06N 47°17' W 002°01'0 0.0
2017-Mar-24 17:19N 47°17' W 002°01'4 5.1
2017-Mar-24 16:32N 47°18' W 002°07'0 0.2
2017-Mar-24 15:28N 47°18' W 002°07'0 0.0
2017-Mar-24 14:30N 47°18' W 002°07'0 0.0
2017-Mar-24 13:30N 47°18' W 002°07'4 4.3
2017-Mar-24 12:32N 47°17' W 002°01'0 0.0
2017-Mar-24 07:30N 47°17' W 002°01'0 0.3
2017-Mar-24 06:34N 47°18' W 002°01'0 0.1
2017-Mar-24 01:33N 47°17' W 002°01'0 0.0
2017-Mar-23 23:15N 47°17' W 002°01'0 0.0
2017-Mar-23 20:24N 47°17' W 002°01'0 0.0
2017-Mar-23 17:27N 47°17' W 002°01'0 0.3
2017-Mar-23 16:27N 47°18' W 002°01'0 0.2
2017-Mar-23 15:33N 47°18' W 002°01'0 0.3
2017-Mar-23 14:33N 47°18' W 002°01'0 0.2
2017-Mar-23 13:32N 47°18' W 002°01'0 0.3
2017-Mar-23 12:32N 47°17' W 002°01'0 0.0
2017-Mar-23 11:31N 47°17' W 002°01'0 0.0
2017-Mar-23 06:16N 47°17' W 002°01'0 0.0
2017-Mar-23 05:11N 47°17' W 002°01'0 0.0
2017-Mar-22 18:04N 47°17' W 002°01'0 0.0
2017-Mar-22 17:10N 47°17' W 002°01'3 4.9
2017-Mar-22 16:32N 47°18' W 002°06'0 0.3
2017-Mar-22 15:32N 47°18' W 002°06'0 0.0
2017-Mar-22 14:30N 47°18' W 002°06'0 0.1
2017-Mar-22 13:31N 47°18' W 002°06'0 0.1
2017-Mar-22 12:31N 47°18' W 002°06'1 0.7
2017-Mar-22 11:34N 47°18' W 002°05'3 0.9
2017-Mar-22 08:31N 47°17' W 002°01'0 0.0
2017-Mar-22 03:31N 47°17' W 002°01'0 0.0
2017-Mar-22 02:28N 47°17' W 002°01'0 0.0
2017-Mar-21 23:22N 47°17' W 002°01'0 0.0
2017-Mar-21 22:28N 47°17' W 002°01'0 0.0
2017-Mar-21 21:28N 47°17' W 002°01'0 0.0
2017-Mar-21 20:28N 47°17' W 002°01'0 0.0
2017-Mar-21 19:19N 47°17' W 002°01'0 0.0
2017-Mar-21 18:31N 47°17' W 002°01'0 0.0
2017-Mar-21 17:28N 47°17' W 002°01'5 5.1
2017-Mar-21 16:33N 47°18' W 002°08'1 0.6
2017-Mar-21 15:32N 47°18' W 002°09'0 0.1
2017-Mar-21 14:33N 47°18' W 002°09'0 0.0
2017-Mar-21 13:18N 47°18' W 002°09'0 0.2
2017-Mar-21 12:33N 47°18' W 002°09'0 0.4
2017-Mar-21 11:27N 47°17' W 002°10'1 1.2
2017-Mar-21 10:31N 47°18' W 002°08'0 0.3
2017-Mar-21 09:31N 47°18' W 002°08'5 4.7
2017-Mar-21 08:33N 47°17' W 002°01'0 0.0
2017-Mar-21 07:27N 47°17' W 002°01'0 0.0
2017-Mar-21 06:30N 47°17' W 002°01'0 0.0
2017-Mar-21 05:33N 47°17' W 002°01'0 0.0
2017-Mar-21 04:33N 47°17' W 002°01'0 0.0
2017-Mar-21 03:33N 47°17' W 002°01'0 0.0
2017-Mar-21 02:27N 47°17' W 002°01'0 0.0
2017-Mar-21 01:30N 47°17' W 002°01'0 0.0
2017-Mar-21 00:33N 47°17' W 002°01'0 0.0
2017-Mar-20 23:30N 47°17' W 002°01'0 0.0
2017-Mar-20 22:33N 47°17' W 002°01'0 0.0
2017-Mar-20 21:27N 47°17' W 002°01'0 0.0
2017-Mar-20 20:30N 47°17' W 002°01'0 0.0
2017-Mar-20 19:27N 47°17' W 002°01'0 0.0
2017-Mar-20 18:21N 47°17' W 002°01'0 0.0
2017-Mar-20 17:27N 47°17' W 002°01'0 0.0
2017-Mar-20 16:33N 47°17' W 002°01'5 5.0
2017-Mar-20 15:33N 47°18' W 002°08'0 0.4
2017-Mar-20 14:31N 47°18' W 002°09'0 0.1
2017-Mar-20 13:29N 47°18' W 002°09'0 0.0
2017-Mar-20 12:27N 47°18' W 002°09'0 0.0
2017-Mar-20 11:31N 47°18' W 002°09'0 0.2
2017-Mar-20 10:22N 47°18' W 002°09'1 0.9
2017-Mar-20 09:33N 47°18' W 002°08'0 0.2
2017-Mar-20 08:33N 47°18' W 002°08'0 0.1
2017-Mar-20 07:33N 47°18' W 002°08'5 4.7
2017-Mar-20 06:33N 47°17' W 002°01'0 0.0
2017-Mar-20 05:33N 47°17' W 002°01'0 0.0
2017-Mar-20 04:33N 47°17' W 002°01'0 0.0
2017-Mar-20 03:33N 47°17' W 002°01'0 0.0
2017-Mar-20 02:33N 47°17' W 002°01'0 0.0
2017-Mar-20 01:33N 47°17' W 002°01'0 0.0
2017-Mar-20 00:33N 47°17' W 002°01'0 0.0
2017-Mar-19 23:33N 47°17' W 002°01'0 0.0
2017-Mar-19 22:33N 47°17' W 002°01'0 0.0
2017-Mar-19 21:33N 47°17' W 002°01'  

Dump ship's entire track history